Time;durP1;ratioP1;P1;durP2;ratioP2;P2;SDS_P1;SDS_P2;PMS_P1;PMS_P2;Temp;Humidity;BMP_temperature;BMP_pressure;BME280_temperature;BME280_humidity;BME280_pressure;Samples;Min_cycle;Max_cycle;Signal;HPM_P1;HPM_P2
2023/09/15 00:01:31;;;;;;;3.97;3.67;;;19.70;99.90;;;;;;5003044;28;20573;-78
2023/09/15 00:03:58;;;;;;;4.78;4.38;;;19.70;99.90;;;;;;5004295;28;20340;-80
2023/09/15 00:06:26;;;;;;;3.97;3.67;;;19.70;99.90;;;;;;5003416;28;20221;-79
2023/09/15 00:08:53;;;;;;;4.45;4.05;;;19.70;99.90;;;;;;4999326;28;20227;-79
2023/09/15 00:11:22;;;;;;;4.20;3.90;;;19.70;99.90;;;;;;5005377;28;20740;-80
2023/09/15 00:13:50;;;;;;;3.85;3.55;;;19.70;99.90;;;;;;5009483;28;20225;-78
2023/09/15 00:16:18;;;;;;;4.35;4.05;;;19.60;99.90;;;;;;5013778;28;20189;-79
2023/09/15 00:18:45;;;;;;;4.60;4.30;;;19.60;99.90;;;;;;5011924;28;20204;-79
2023/09/15 00:21:14;;;;;;;4.47;4.18;;;19.70;99.90;;;;;;5015653;28;20204;-79
2023/09/15 00:23:41;;;;;;;4.65;4.20;;;19.70;99.90;;;;;;5004090;28;20316;-79
2023/09/15 00:26:09;;;;;;;4.88;4.40;;;19.70;99.90;;;;;;5014428;28;20282;-79
2023/09/15 00:28:36;;;;;;;4.10;3.80;;;19.60;99.90;;;;;;5004970;28;20231;-79
2023/09/15 00:31:03;;;;;;;4.25;3.95;;;19.60;99.90;;;;;;5003164;28;20200;-79
2023/09/15 00:33:33;;;;;;;4.57;4.18;;;19.70;99.90;;;;;;5005518;28;20278;-80
2023/09/15 00:36:01;;;;;;;4.85;4.30;;;19.60;99.90;;;;;;5001151;28;20205;-80
2023/09/15 00:38:28;;;;;;;4.60;4.30;;;19.60;99.90;;;;;;4998832;28;20284;-79
2023/09/15 00:40:55;;;;;;;4.57;4.28;;;19.60;99.90;;;;;;5007441;28;20204;-80
2023/09/15 00:43:22;;;;;;;4.75;4.45;;;19.60;99.90;;;;;;5006250;28;20274;-80
2023/09/15 00:45:49;;;;;;;4.45;4.15;;;19.50;99.90;;;;;;5008416;28;20714;-79
2023/09/15 00:48:18;;;;;;;4.13;3.83;;;19.60;99.90;;;;;;5008880;28;20197;-79
2023/09/15 00:50:47;;;;;;;4.60;4.30;;;19.50;99.90;;;;;;5005535;28;20746;-78
2023/09/15 00:53:19;;;;;;;4.50;4.20;;;19.60;99.90;;;;;;5002788;28;20221;-79
2023/09/15 00:55:47;;;;;;;4.93;4.53;;;19.60;99.90;;;;;;5000947;28;20212;-79
2023/09/15 00:58:16;;;;;;;4.20;3.90;;;19.60;99.90;;;;;;5006814;28;20208;-80
2023/09/15 01:00:44;;;;;;;4.05;3.75;;;19.60;99.90;;;;;;4999461;28;20196;-80
2023/09/15 01:03:12;;;;;;;4.10;3.80;;;19.50;99.90;;;;;;5003154;28;20275;-79
2023/09/15 01:05:41;;;;;;;3.95;3.65;;;19.50;99.90;;;;;;5005006;28;20306;-79
2023/09/15 01:08:10;;;;;;;4.18;3.88;;;19.50;99.90;;;;;;5010994;28;20228;-79
2023/09/15 01:10:36;;;;;;;4.30;3.90;;;19.60;99.90;;;;;;4998407;28;20611;-80
2023/09/15 01:13:04;;;;;;;4.18;3.88;;;19.50;99.90;;;;;;5007088;28;20220;-79
2023/09/15 01:15:36;;;;;;;4.10;3.80;;;19.60;99.90;;;;;;5006930;28;20208;-79
2023/09/15 01:18:10;;;;;;;3.70;3.40;;;19.60;99.90;;;;;;5005422;28;20223;-78
2023/09/15 01:21:08;;;;;;;4.43;4.03;;;19.60;99.90;;;;;;5002806;28;20741;-79
2023/09/15 01:24:03;;;;;;;4.15;3.85;;;19.50;99.90;;;;;;4966483;28;20232;-79
2023/09/15 01:26:59;;;;;;;3.90;3.60;;;19.50;99.90;;;;;;5005390;28;20216;-79
2023/09/15 01:29:46;;;;;;;4.20;3.80;;;19.50;99.90;;;;;;4999142;28;20244;-79
2023/09/15 01:32:15;;;;;;;3.85;3.55;;;19.50;99.90;;;;;;5000865;28;20223;-79
2023/09/15 01:34:48;;;;;;;4.15;3.88;;;19.50;99.90;;;;;;5003979;28;20220;-79
2023/09/15 01:37:15;;;;;;;4.18;3.88;;;19.50;99.90;;;;;;5001227;28;20292;-79
2023/09/15 01:39:42;;;;;;;3.92;3.70;;;19.50;99.90;;;;;;4999130;28;20283;-78
2023/09/15 01:42:09;;;;;;;3.40;3.20;;;19.40;99.90;;;;;;5004628;28;20201;-78
2023/09/15 01:44:36;;;;;;;3.72;3.42;;;19.40;99.90;;;;;;5001581;28;20288;-79
2023/09/15 01:47:08;;;;;;;4.63;4.22;;;19.40;99.90;;;;;;5004551;28;20223;-79
2023/09/15 01:49:35;;;;;;;3.72;3.53;;;19.40;99.90;;;;;;5001492;28;20227;-77
2023/09/15 01:52:04;;;;;;;4.30;4.00;;;19.40;99.90;;;;;;5006029;28;21515;-80
2023/09/15 01:54:31;;;;;;;4.32;4.03;;;19.40;99.90;;;;;;4996986;28;20274;-79
2023/09/15 01:56:58;;;;;;;4.60;4.30;;;19.30;99.90;;;;;;5008526;28;20196;-79
2023/09/15 01:59:25;;;;;;;4.53;4.22;;;19.30;99.90;;;;;;5005159;28;20204;-79
2023/09/15 02:01:52;;;;;;;4.55;4.22;;;19.30;99.90;;;;;;5002364;28;20247;-78
2023/09/15 02:04:20;;;;;;;4.22;3.90;;;19.30;99.90;;;;;;5005549;28;20220;-79
2023/09/15 02:06:47;;;;;;;4.60;4.25;;;19.30;99.90;;;;;;5003221;28;20724;-78
2023/09/15 02:09:15;;;;;;;4.72;4.43;;;19.30;99.90;;;;;;5003195;28;20201;-79
2023/09/15 02:11:42;;;;;;;4.43;4.03;;;19.20;99.90;;;;;;5007798;28;20196;-78
2023/09/15 02:14:09;;;;;;;4.15;3.83;;;19.20;99.90;;;;;;5004677;28;20220;-78
2023/09/15 02:16:36;;;;;;;4.43;4.13;;;19.20;99.90;;;;;;5007565;28;20258;-79
2023/09/15 02:19:06;;;;;;;4.22;3.92;;;19.20;99.90;;;;;;5002406;28;20201;-79
2023/09/15 02:21:34;;;;;;;4.47;4.18;;;19.20;99.90;;;;;;5001772;28;20219;-79
2023/09/15 02:24:02;;;;;;;4.38;4.00;;;19.20;99.90;;;;;;5011460;28;20772;-79
2023/09/15 02:26:30;;;;;;;4.50;4.10;;;19.10;99.90;;;;;;5009580;28;20228;-79
2023/09/15 02:28:57;;;;;;;4.80;4.43;;;19.10;99.90;;;;;;5009347;28;20336;-79
2023/09/15 02:31:24;;;;;;;4.10;3.80;;;19.10;99.90;;;;;;5010442;28;20814;-79
2023/09/15 02:33:51;;;;;;;4.25;3.85;;;19.10;99.90;;;;;;5012683;28;20228;-79
2023/09/15 02:36:18;;;;;;;5.18;4.65;;;19.20;99.90;;;;;;5005358;28;20287;-79
2023/09/15 02:38:47;;;;;;;6.47;4.50;;;19.20;99.90;;;;;;5008057;28;20259;-80
2023/09/15 02:41:13;;;;;;;4.60;4.30;;;19.20;99.90;;;;;;5008785;28;20201;-79
2023/09/15 02:43:40;;;;;;;5.82;5.10;;;19.10;99.90;;;;;;5007720;28;20266;-79
2023/09/15 02:46:07;;;;;;;5.35;4.88;;;19.10;99.90;;;;;;5010386;28;20248;-78
2023/09/15 02:48:34;;;;;;;4.72;4.35;;;19.10;99.90;;;;;;5005050;28;20193;-79
2023/09/15 02:51:01;;;;;;;4.47;4.07;;;19.10;99.90;;;;;;5006012;28;20259;-79
2023/09/15 02:53:28;;;;;;;4.97;4.57;;;19.10;99.90;;;;;;5004424;28;20655;-79
2023/09/15 02:55:59;;;;;;;4.30;4.00;;;19.10;99.90;;;;;;5004690;28;20204;-79
2023/09/15 02:58:26;;;;;;;4.47;4.10;;;19.00;99.90;;;;;;5013408;28;20235;-80
2023/09/15 03:00:53;;;;;;;4.63;4.32;;;19.00;99.90;;;;;;5009069;28;20228;-79
2023/09/15 03:03:24;;;;;;;4.38;4.07;;;19.00;99.90;;;;;;5007689;28;20300;-79
2023/09/15 03:05:52;;;;;;;3.90;3.60;;;19.00;99.90;;;;;;5006107;28;20279;-78
2023/09/15 03:08:19;;;;;;;4.38;4.07;;;19.00;99.90;;;;;;5010469;28;20291;-79
2023/09/15 03:10:46;;;;;;;4.53;4.22;;;19.00;99.90;;;;;;5009616;28;20200;-78
2023/09/15 03:13:15;;;;;;;4.65;4.35;;;19.00;99.90;;;;;;5009992;28;20244;-79
2023/09/15 03:15:42;;;;;;;4.63;4.32;;;19.00;99.90;;;;;;5006723;28;20208;-79
2023/09/15 03:18:09;;;;;;;4.22;3.92;;;19.00;99.90;;;;;;5012334;28;20293;-78
2023/09/15 03:20:37;;;;;;;4.13;3.83;;;19.00;99.90;;;;;;5004328;28;20586;-79
2023/09/15 03:23:04;;;;;;;4.85;4.45;;;19.00;99.90;;;;;;5006007;28;20259;-79
2023/09/15 03:25:31;;;;;;;4.45;4.15;;;19.00;99.90;;;;;;5004637;28;20670;-79
2023/09/15 03:27:58;;;;;;;4.43;4.13;;;18.90;99.90;;;;;;5008070;28;20223;-81
2023/09/15 03:30:26;;;;;;;3.88;3.67;;;18.90;99.90;;;;;;5007805;28;20314;-79
2023/09/15 03:32:54;;;;;;;4.65;4.35;;;18.90;99.90;;;;;;5003594;28;20960;-80
2023/09/15 03:35:21;;;;;;;4.32;4.03;;;18.90;99.90;;;;;;5011448;28;20559;-79
2023/09/15 03:37:48;;;;;;;4.13;3.83;;;18.80;99.90;;;;;;5008577;28;20283;-79
2023/09/15 03:40:15;;;;;;;4.88;4.47;;;18.80;99.90;;;;;;5007817;28;20205;-79
2023/09/15 03:42:42;;;;;;;4.95;4.55;;;18.80;99.90;;;;;;5013780;28;20203;-79
2023/09/15 03:45:10;;;;;;;4.78;4.28;;;18.70;99.90;;;;;;5006566;28;20200;-77
2023/09/15 03:47:38;;;;;;;7.05;4.63;;;18.70;99.90;;;;;;5006868;28;20628;-79
2023/09/15 03:50:08;;;;;;;6.53;5.28;;;18.70;99.90;;;;;;5005846;28;20257;-79
2023/09/15 03:52:35;;;;;;;9.07;5.55;;;18.60;99.90;;;;;;5008910;28;20287;-79
2023/09/15 03:55:02;;;;;;;11.57;5.45;;;18.60;99.90;;;;;;5010338;28;20196;-80
2023/09/15 03:57:30;;;;;;;5.72;5.10;;;18.60;99.90;;;;;;5010406;28;20204;-79
2023/09/15 03:59:57;;;;;;;6.60;5.15;;;18.50;99.90;;;;;;5010597;28;20208;-79
2023/09/15 04:02:24;;;;;;;6.82;4.97;;;18.50;99.90;;;;;;5008032;28;20548;-80
2023/09/15 04:04:53;;;;;;;4.50;4.20;;;18.50;99.90;;;;;;5010971;28;20259;-79
2023/09/15 04:07:20;;;;;;;4.43;4.07;;;18.50;99.90;;;;;;5006704;28;20298;-78
2023/09/15 04:09:47;;;;;;;4.75;4.35;;;18.50;99.90;;;;;;5006547;28;20266;-79
2023/09/15 04:12:14;;;;;;;4.78;4.38;;;18.40;99.90;;;;;;5009109;28;20204;-79
2023/09/15 04:14:41;;;;;;;4.50;4.20;;;18.40;99.90;;;;;;5005798;28;20312;-81
2023/09/15 04:17:09;;;;;;;4.55;4.25;;;18.40;99.90;;;;;;5009960;28;20258;-79
2023/09/15 04:19:36;;;;;;;4.70;4.30;;;18.40;99.90;;;;;;5007897;28;20203;-79
2023/09/15 04:22:04;;;;;;;5.15;4.45;;;18.30;99.90;;;;;;5001840;28;20200;-79
2023/09/15 04:24:31;;;;;;;4.43;4.13;;;18.30;99.90;;;;;;5005585;28;20223;-79
2023/09/15 04:26:58;;;;;;;4.63;4.22;;;18.30;99.90;;;;;;5010375;28;20311;-79
2023/09/15 04:29:25;;;;;;;4.18;3.88;;;18.30;99.90;;;;;;5008581;28;20247;-80
2023/09/15 04:31:52;;;;;;;4.20;3.80;;;18.30;99.90;;;;;;5006723;28;20772;-79
2023/09/15 04:34:19;;;;;;;5.45;3.50;;;18.30;99.90;;;;;;5008425;28;20899;-78
2023/09/15 04:36:46;;;;;;;4.20;3.90;;;18.30;99.90;;;;;;5007684;28;20200;-79
2023/09/15 04:39:14;;;;;;;4.32;4.03;;;18.30;99.90;;;;;;5008268;28;20203;-79
2023/09/15 04:41:42;;;;;;;4.25;3.88;;;18.30;99.90;;;;;;5002684;28;20219;-79
2023/09/15 04:44:10;;;;;;;3.75;3.53;;;18.30;99.90;;;;;;5003161;28;20221;-79
2023/09/15 04:46:37;;;;;;;4.18;3.88;;;18.20;99.90;;;;;;5000604;28;20240;-79
2023/09/15 04:49:04;;;;;;;4.15;3.72;;;18.20;99.90;;;;;;5005882;28;20216;-79
2023/09/15 04:51:31;;;;;;;3.90;3.60;;;18.20;99.90;;;;;;5011923;28;20211;-79
2023/09/15 04:53:58;;;;;;;4.63;4.18;;;18.20;99.90;;;;;;5002378;28;20775;-79
2023/09/15 04:56:26;;;;;;;4.47;4.07;;;18.10;99.90;;;;;;5010901;28;20205;-79
2023/09/15 04:58:53;;;;;;;4.40;4.03;;;18.10;99.90;;;;;;5004363;28;20205;-79
2023/09/15 05:01:20;;;;;;;4.55;4.25;;;18.10;99.90;;;;;;5009173;28;20227;-79
2023/09/15 05:03:47;;;;;;;4.40;4.00;;;18.10;99.90;;;;;;5005784;28;20277;-80
2023/09/15 05:06:14;;;;;;;4.22;3.83;;;18.10;99.90;;;;;;5003022;28;20208;-79
2023/09/15 05:08:41;;;;;;;4.03;3.72;;;18.10;99.90;;;;;;5011241;28;20220;-80
2023/09/15 05:11:08;;;;;;;4.30;4.00;;;18.10;99.90;;;;;;5004083;28;20208;-78
2023/09/15 05:13:36;;;;;;;4.20;3.80;;;18.20;99.90;;;;;;5000727;28;20223;-79
2023/09/15 05:16:03;;;;;;;3.75;3.50;;;18.20;99.90;;;;;;5005345;28;20219;-79
2023/09/15 05:18:31;;;;;;;4.28;3.97;;;18.20;99.90;;;;;;5006924;28;20204;-79
2023/09/15 05:20:58;;;;;;;4.65;4.35;;;18.20;99.90;;;;;;5000694;28;20306;-80
2023/09/15 05:23:25;;;;;;;4.40;4.10;;;18.30;99.90;;;;;;5010680;28;20627;-80
2023/09/15 05:25:53;;;;;;;4.50;4.10;;;18.30;99.90;;;;;;5006388;28;20205;-79
2023/09/15 05:28:20;;;;;;;4.57;3.83;;;18.30;99.90;;;;;;5004631;28;20235;-79
2023/09/15 05:30:48;;;;;;;4.20;3.90;;;18.30;99.90;;;;;;5006482;28;20208;-78
2023/09/15 05:33:17;;;;;;;4.18;3.88;;;18.40;99.90;;;;;;5007650;28;20219;-77
2023/09/15 05:35:44;;;;;;;4.60;4.30;;;18.50;99.90;;;;;;5006093;28;20208;-78
2023/09/15 05:38:10;;;;;;;4.20;3.90;;;18.50;99.90;;;;;;5007448;28;20195;-78
2023/09/15 05:40:38;;;;;;;4.30;4.00;;;18.60;99.90;;;;;;5002180;28;20196;-79
2023/09/15 05:43:05;;;;;;;3.65;3.45;;;18.60;99.90;;;;;;5004466;28;20256;-79
2023/09/15 05:45:32;;;;;;;3.67;3.45;;;18.70;99.90;;;;;;5004381;28;20254;-79
2023/09/15 05:48:00;;;;;;;4.53;4.22;;;18.80;99.90;;;;;;4997370;28;20216;-80
2023/09/15 05:50:27;;;;;;;4.55;3.63;;;18.90;99.90;;;;;;4997080;28;20290;-79
2023/09/15 05:52:54;;;;;;;4.65;4.32;;;19.00;99.90;;;;;;4998013;28;20252;-79
2023/09/15 05:55:21;;;;;;;4.47;4.15;;;19.10;99.90;;;;;;4999480;28;20274;-81
2023/09/15 05:57:48;;;;;;;4.78;4.32;;;19.20;99.90;;;;;;4997616;28;20248;-78
2023/09/15 06:00:15;;;;;;;4.35;4.05;;;19.30;99.90;;;;;;5006235;28;20200;-79
2023/09/15 06:02:43;;;;;;;4.40;4.10;;;19.40;99.90;;;;;;5002810;28;20263;-77
2023/09/15 06:05:11;;;;;;;4.78;4.47;;;19.40;99.90;;;;;;5008502;28;20211;-79
2023/09/15 06:07:38;;;;;;;4.57;4.28;;;19.50;99.90;;;;;;5006527;28;20279;-78
2023/09/15 06:10:06;;;;;;;5.18;4.88;;;19.60;99.90;;;;;;5004597;28;20219;-78
2023/09/15 06:12:33;;;;;;;5.25;4.85;;;19.70;99.90;;;;;;5005365;28;20253;-78
2023/09/15 06:15:00;;;;;;;4.63;4.32;;;19.80;99.90;;;;;;5006079;28;20298;-78
2023/09/15 06:17:28;;;;;;;4.85;4.45;;;20.10;99.90;;;;;;4999902;28;20255;-78
2023/09/15 06:19:55;;;;;;;5.45;4.93;;;20.40;99.90;;;;;;5008331;28;20671;-80
2023/09/15 06:22:24;;;;;;;4.78;4.47;;;20.50;99.90;;;;;;4999511;28;20247;-79
2023/09/15 06:24:51;;;;;;;5.53;5.13;;;20.60;99.90;;;;;;4991003;28;20227;-78
2023/09/15 06:27:18;;;;;;;5.53;5.13;;;20.60;99.90;;;;;;4990709;28;20459;-80
2023/09/15 06:29:45;;;;;;;5.20;4.68;;;20.50;99.90;;;;;;5002698;28;20286;-79
2023/09/15 06:32:12;;;;;;;5.32;4.93;;;20.40;99.90;;;;;;4999398;28;20213;-79
2023/09/15 06:34:39;;;;;;;5.65;5.25;;;20.40;99.90;;;;;;5012480;28;20219;-80
2023/09/15 06:37:06;;;;;;;4.90;4.50;;;20.30;99.90;;;;;;5004055;28;20239;-77
2023/09/15 06:39:36;;;;;;;5.20;4.85;;;20.30;99.90;;;;;;5007060;28;20195;-79
2023/09/15 06:42:04;;;;;;;5.32;4.93;;;20.40;99.90;;;;;;5004983;28;20208;-79
2023/09/15 06:44:31;;;;;;;5.38;4.97;;;20.50;99.90;;;;;;5003589;28;20720;-76
2023/09/15 06:46:58;;;;;;;5.30;4.90;;;20.70;99.90;;;;;;5008435;28;20211;-77
2023/09/15 06:49:26;;;;;;;4.93;4.53;;;20.80;99.90;;;;;;5005328;28;20283;-78
2023/09/15 06:51:53;;;;;;;5.13;4.78;;;21.00;99.90;;;;;;5009379;28;20204;-78
2023/09/15 06:54:21;;;;;;;5.20;4.70;;;21.10;99.90;;;;;;5007008;28;20319;-77
2023/09/15 06:56:51;;;;;;;4.90;4.50;;;21.40;99.90;;;;;;4996301;28;20298;-77
2023/09/15 06:59:18;;;;;;;5.05;4.68;;;21.50;99.90;;;;;;5002087;28;20200;-79
2023/09/15 07:01:45;;;;;;;5.82;5.32;;;21.50;99.90;;;;;;5004708;28;20201;-78
2023/09/15 07:04:13;;;;;;;5.15;4.75;;;21.50;99.90;;;;;;5004641;28;20788;-79
2023/09/15 07:06:40;;;;;;;5.38;4.70;;;21.80;99.90;;;;;;5000524;28;20972;-77
2023/09/15 07:09:08;;;;;;;5.40;4.95;;;22.20;99.90;;;;;;5000557;28;21891;-78
2023/09/15 07:11:35;;;;;;;5.93;5.38;;;22.40;99.90;;;;;;5006326;28;20197;-78
2023/09/15 07:14:03;;;;;;;5.50;5.10;;;22.20;99.90;;;;;;5004956;28;20246;-76
2023/09/15 07:16:30;;;;;;;5.78;5.30;;;21.90;99.90;;;;;;5003234;28;20207;-77
2023/09/15 07:18:57;;;;;;;5.93;5.43;;;21.70;99.90;;;;;;5001244;28;20290;-79
2023/09/15 07:21:24;;;;;;;5.47;4.97;;;21.60;99.90;;;;;;4996880;28;20283;-78
2023/09/15 07:23:51;;;;;;;6.22;5.63;;;21.50;99.90;;;;;;5001536;28;20302;-77
2023/09/15 07:26:18;;;;;;;5.72;5.32;;;21.60;99.90;;;;;;5002515;28;20208;-77
2023/09/15 07:28:45;;;;;;;6.15;5.55;;;21.80;99.90;;;;;;5005536;28;20707;-78
2023/09/15 07:31:15;;;;;;;5.63;5.20;;;21.90;99.90;;;;;;4995654;28;20204;-77
2023/09/15 07:33:43;;;;;;;5.93;5.32;;;21.90;99.90;;;;;;5001434;28;20228;-78
2023/09/15 07:36:11;;;;;;;6.45;5.25;;;21.90;99.90;;;;;;5002114;28;20207;-77
2023/09/15 07:38:38;;;;;;;6.13;5.53;;;22.20;99.90;;;;;;4998734;28;20291;-77
2023/09/15 07:41:05;;;;;;;5.32;4.93;;;22.00;99.90;;;;;;4999215;28;20200;-78
2023/09/15 07:43:32;;;;;;;6.25;5.70;;;21.90;99.90;;;;;;5005325;28;20281;-78
2023/09/15 07:45:59;;;;;;;6.20;5.70;;;21.80;99.90;;;;;;5009178;28;20239;-77
2023/09/15 07:48:29;;;;;;;6.13;5.43;;;21.80;99.90;;;;;;5003144;28;20301;-78
2023/09/15 07:50:56;;;;;;;5.95;5.45;;;22.00;99.90;;;;;;4997854;28;20208;-77
2023/09/15 07:53:23;;;;;;;6.53;6.05;;;22.00;99.90;;;;;;5001653;28;20228;-76
2023/09/15 07:55:50;;;;;;;6.05;5.55;;;22.10;99.90;;;;;;5004991;28;20208;-77
2023/09/15 07:58:17;;;;;;;6.25;5.35;;;22.30;99.90;;;;;;5004701;28;20200;-78
2023/09/15 08:00:45;;;;;;;6.13;5.70;;;22.70;99.90;;;;;;5001394;28;20247;-78
2023/09/15 08:03:11;;;;;;;7.05;6.45;;;22.90;99.90;;;;;;5004262;28;20236;-77
2023/09/15 08:05:40;;;;;;;6.28;5.78;;;23.40;99.90;;;;;;5003767;28;20205;-78
2023/09/15 08:08:07;;;;;;;6.50;6.00;;;23.60;99.90;;;;;;5007134;28;20741;-77
2023/09/15 08:10:34;;;;;;;6.45;5.85;;;23.50;99.90;;;;;;5004202;28;20254;-79
2023/09/15 08:13:01;;;;;;;6.13;5.53;;;23.30;99.90;;;;;;5005680;28;20224;-78
2023/09/15 08:15:27;;;;;;;6.03;5.63;;;23.40;99.90;;;;;;5005675;28;20200;-76
2023/09/15 08:17:54;;;;;;;6.25;5.85;;;23.50;99.90;;;;;;5002887;28;20251;-78
2023/09/15 08:20:23;;;;;;;6.43;5.93;;;23.30;99.90;;;;;;5004104;28;20639;-78
2023/09/15 08:22:51;;;;;;;6.20;5.70;;;23.20;99.90;;;;;;5001487;28;20208;-78
2023/09/15 08:25:18;;;;;;;5.90;5.50;;;23.40;99.90;;;;;;5003613;28;20207;-78
2023/09/15 08:27:46;;;;;;;5.88;5.38;;;23.40;99.90;;;;;;5000817;28;20289;-78
2023/09/15 08:30:14;;;;;;;7.03;6.35;;;23.50;99.90;;;;;;5002336;28;20208;-77
2023/09/15 08:32:42;;;;;;;7.10;6.50;;;23.40;99.90;;;;;;5003157;28;20216;-77
2023/09/15 08:35:10;;;;;;;6.10;5.70;;;23.30;99.90;;;;;;5003145;28;20208;-79
2023/09/15 08:37:37;;;;;;;6.22;5.72;;;23.40;99.90;;;;;;5000545;28;20207;-77
2023/09/15 08:40:07;;;;;;;6.13;5.63;;;23.60;99.90;;;;;;5006670;28;20200;-77
2023/09/15 08:42:34;;;;;;;5.57;5.18;;;23.80;99.90;;;;;;5005567;28;20203;-77
2023/09/15 08:45:04;;;;;;;5.93;5.53;;;24.20;99.90;;;;;;5005268;28;20262;-77
2023/09/15 08:47:34;;;;;;;6.03;5.53;;;24.70;99.90;;;;;;5006497;28;20192;-77
2023/09/15 08:50:03;;;;;;;6.30;5.70;;;25.10;99.90;;;;;;5000854;28;20192;-77
2023/09/15 08:52:31;;;;;;;6.60;6.05;;;25.50;99.90;;;;;;5001203;28;20675;-78
2023/09/15 08:54:58;;;;;;;8.05;7.28;;;25.50;99.90;;;;;;5003596;28;20238;-78
2023/09/15 08:57:30;;;;;;;7.05;6.45;;;25.30;99.90;;;;;;5003277;28;20632;-78
2023/09/15 08:59:58;;;;;;;5.78;5.28;;;25.10;99.90;;;;;;5004004;28;20196;-79
2023/09/15 09:02:25;;;;;;;7.70;6.35;;;24.80;99.90;;;;;;4999648;28;20192;-77
2023/09/15 09:04:51;;;;;;;7.03;6.43;;;24.60;99.90;;;;;;4998645;28;20307;-78
2023/09/15 09:07:22;;;;;;;6.28;5.68;;;24.40;99.90;;;;;;5009063;28;20197;-77
2023/09/15 09:09:49;;;;;;;6.13;5.63;;;24.70;99.90;;;;;;5000053;28;20224;-77
2023/09/15 09:12:17;;;;;;;6.65;6.13;;;24.70;99.90;;;;;;5002767;28;20204;-77
2023/09/15 09:14:45;;;;;;;6.68;5.95;;;24.70;99.90;;;;;;5002795;28;20311;-79
2023/09/15 09:17:13;;;;;;;5.82;5.43;;;24.60;99.90;;;;;;5003809;28;20295;-77
2023/09/15 09:19:42;;;;;;;6.40;5.78;;;24.50;99.90;;;;;;5004217;28;20278;-77
2023/09/15 09:22:10;;;;;;;6.93;6.32;;;24.70;99.90;;;;;;5001323;28;20205;-77
2023/09/15 09:24:38;;;;;;;5.07;4.72;;;25.10;99.90;;;;;;4999272;28;20270;-78
2023/09/15 09:27:09;;;;;;;6.57;6.07;;;25.20;99.90;;;;;;5001719;28;20265;-77
2023/09/15 09:29:37;;;;;;;5.65;5.25;;;25.10;99.90;;;;;;5005904;28;20948;-78
2023/09/15 09:32:06;;;;;;;6.30;5.82;;;24.90;99.90;;;;;;5003445;28;20260;-78
2023/09/15 09:34:33;;;;;;;6.68;6.18;;;25.00;99.90;;;;;;5010354;28;20227;-78
2023/09/15 09:37:00;;;;;;;6.05;5.47;;;24.90;99.90;;;;;;5010115;28;20207;-78
2023/09/15 09:39:28;;;;;;;5.10;4.70;;;24.80;99.90;;;;;;5007579;28;20210;-77
2023/09/15 09:41:56;;;;;;;5.30;4.80;;;24.80;99.90;;;;;;5008249;28;20208;-78
2023/09/15 09:44:23;;;;;;;5.90;5.30;;;24.80;99.90;;;;;;5008860;28;20247;-79
2023/09/15 09:46:53;;;;;;;4.70;4.40;;;24.70;99.90;;;;;;5010443;28;20534;-76
2023/09/15 09:49:22;;;;;;;5.28;4.78;;;24.80;99.90;;;;;;5007275;28;20855;-78
2023/09/15 09:51:52;;;;;;;5.30;4.80;;;25.10;99.90;;;;;;5011164;28;20291;-78
2023/09/15 09:54:18;;;;;;;4.90;4.60;;;25.30;99.90;;;;;;5010933;28;20315;-77
2023/09/15 09:56:49;;;;;;;5.22;4.82;;;25.20;99.90;;;;;;5009450;28;20209;-79
2023/09/15 09:59:16;;;;;;;5.97;5.47;;;25.20;99.90;;;;;;5007561;28;20232;-77
2023/09/15 10:01:43;;;;;;;6.13;5.20;;;25.20;99.90;;;;;;5004613;28;20202;-76
2023/09/15 10:04:10;;;;;;;5.22;4.82;;;25.20;99.90;;;;;;5004365;28;20227;-79
2023/09/15 10:06:39;;;;;;;5.60;5.18;;;25.10;99.90;;;;;;5003991;28;20253;-79
2023/09/15 10:09:07;;;;;;;5.13;4.70;;;25.20;99.90;;;;;;4999963;28;20860;-78
2023/09/15 10:11:35;;;;;;;5.20;4.80;;;25.60;99.90;;;;;;5005565;28;20202;-78
2023/09/15 10:14:04;;;;;;;5.30;4.80;;;26.30;99.90;;;;;;5007284;28;20232;-78
2023/09/15 10:16:32;;;;;;;4.25;3.85;;;26.90;99.90;;;;;;5004945;28;20262;-78
2023/09/15 10:19:02;;;;;;;5.20;4.80;;;27.30;99.90;;;;;;5007244;28;20708;-78
2023/09/15 10:21:30;;;;;;;4.60;4.22;;;27.20;99.90;;;;;;5006557;28;20215;-79
2023/09/15 10:24:08;;;;;;;4.68;4.38;;;27.10;99.90;;;;;;5007116;28;20582;-78
2023/09/15 10:26:38;;;;;;;4.22;3.83;;;27.40;99.90;;;;;;5005646;28;20590;-78
2023/09/15 10:29:05;;;;;;;5.25;4.82;;;27.90;99.90;;;;;;5004145;28;20216;-78
2023/09/15 10:31:34;;;;;;;4.78;4.43;;;28.50;99.90;;;;;;5006557;28;20205;-78
2023/09/15 10:34:02;;;;;;;4.35;3.95;;;28.70;99.90;;;;;;5005286;28;20408;-78
2023/09/15 10:36:29;;;;;;;4.50;4.13;;;29.00;99.90;;;;;;5005157;28;20193;-79
2023/09/15 10:38:58;;;;;;;3.78;3.47;;;29.30;99.90;;;;;;5004296;28;20242;-79
2023/09/15 10:41:28;;;;;;;3.40;3.20;;;29.40;99.90;;;;;;5005664;28;20196;-79
2023/09/15 10:43:55;;;;;;;3.40;2.95;;;29.10;99.90;;;;;;5002671;28;20270;-77
2023/09/15 10:46:22;;;;;;;4.22;3.90;;;28.60;99.90;;;;;;5003889;28;20260;-77
2023/09/15 10:48:51;;;;;;;3.90;3.60;;;28.40;99.90;;;;;;5008447;28;20221;-80
2023/09/15 10:51:19;;;;;;;3.40;3.20;;;28.30;99.90;;;;;;5008852;28;20208;-78
2023/09/15 10:53:48;;;;;;;3.70;3.40;;;28.10;99.90;;;;;;5005312;28;20410;-78
2023/09/15 10:56:17;;;;;;;3.15;2.90;;;27.90;99.90;;;;;;5006157;28;20236;-77
2023/09/15 10:58:59;;;;;;;3.28;3.03;;;27.60;99.90;;;;;;5012273;28;20271;-78
2023/09/15 11:01:43;;;;;;;2.90;2.70;;;27.80;99.90;;;;;;4989754;28;20352;-77
2023/09/15 11:04:25;;;;;;;2.78;2.53;;;28.10;99.90;;;;;;5002633;28;20311;-77
2023/09/15 11:06:53;;;;;;;2.67;2.47;;;28.40;99.90;;;;;;5004826;28;20911;-78
2023/09/15 11:09:21;;;;;;;3.45;2.40;;;28.50;99.90;;;;;;5003768;28;20243;-78
2023/09/15 11:11:50;;;;;;;2.10;2.00;;;28.70;99.90;;;;;;5007144;28;20723;-78
2023/09/15 11:14:20;;;;;;;2.55;2.38;;;28.90;99.90;;;;;;5005713;28;20302;-78
2023/09/15 11:16:49;;;;;;;2.35;2.15;;;28.60;99.90;;;;;;5006033;28;20259;-78
2023/09/15 11:19:17;;;;;;;2.55;2.25;;;28.50;99.90;;;;;;5003860;28;20283;-77
2023/09/15 11:21:45;;;;;;;2.45;2.03;;;28.40;99.90;;;;;;5007431;28;20197;-79
2023/09/15 11:24:12;;;;;;;2.30;2.10;;;28.20;99.90;;;;;;5001268;28;20272;-78
2023/09/15 11:26:47;;;;;;;2.03;1.90;;;28.00;99.90;;;;;;5004084;28;20195;-77
2023/09/15 11:29:14;;;;;;;2.03;1.92;;;28.00;99.90;;;;;;5001471;28;20215;-79
2023/09/15 11:31:43;;;;;;;2.00;1.80;;;28.20;99.90;;;;;;5003516;28;20256;-76
2023/09/15 11:34:10;;;;;;;1.92;1.55;;;28.40;99.90;;;;;;5009294;28;20220;-80
2023/09/15 11:36:38;;;;;;;2.55;1.77;;;28.40;99.90;;;;;;5006027;28;20585;-77
2023/09/15 11:39:11;;;;;;;1.88;1.77;;;28.40;99.90;;;;;;5002950;28;20283;-77
2023/09/15 11:41:39;;;;;;;1.70;1.60;;;28.40;99.90;;;;;;5003412;28;20208;-80
2023/09/15 11:44:08;;;;;;;1.90;1.23;;;28.30;99.90;;;;;;4999787;28;20267;-79
2023/09/15 11:46:37;;;;;;;2.17;1.70;;;28.30;99.90;;;;;;5011664;28;20579;-78
2023/09/15 11:49:06;;;;;;;2.17;1.80;;;28.30;99.90;;;;;;4996721;28;20282;-77
2023/09/15 11:51:35;;;;;;;2.00;1.80;;;28.20;99.90;;;;;;5002150;28;20247;-76
2023/09/15 11:54:03;;;;;;;1.90;1.80;;;28.30;99.90;;;;;;4997962;28;20231;-76
2023/09/15 11:56:31;;;;;;;1.70;1.60;;;28.50;99.90;;;;;;5000035;28;20205;-78
2023/09/15 11:58:58;;;;;;;1.80;1.70;;;28.50;99.90;;;;;;5003270;28;20266;-77
2023/09/15 12:01:26;;;;;;;1.70;1.60;;;28.40;99.90;;;;;;5000089;28;20675;-78
2023/09/15 12:03:53;;;;;;;1.55;1.45;;;28.60;99.90;;;;;;5001037;28;20223;-77
2023/09/15 12:06:22;;;;;;;1.40;1.30;;;28.40;99.90;;;;;;5002215;28;20271;-76
2023/09/15 12:08:51;;;;;;;1.70;1.58;;;28.40;99.90;;;;;;5007304;28;20203;-78
2023/09/15 12:11:19;;;;;;;1.73;1.63;;;28.40;99.90;;;;;;5009394;28;20278;-76
2023/09/15 12:13:51;;;;;;;2.03;1.80;;;28.00;99.90;;;;;;5005650;28;20224;-77
2023/09/15 12:16:19;;;;;;;1.92;1.83;;;27.50;99.90;;;;;;5001554;28;20706;-77
2023/09/15 12:18:47;;;;;;;2.00;1.80;;;27.20;99.90;;;;;;5003412;28;20208;-77
2023/09/15 12:21:15;;;;;;;1.70;1.60;;;27.30;99.90;;;;;;5001951;28;20673;-77
2023/09/15 12:23:44;;;;;;;1.75;1.65;;;27.30;99.90;;;;;;5002236;28;20311;-79
2023/09/15 12:26:12;;;;;;;1.85;1.75;;;27.40;99.90;;;;;;5000494;28;20266;-79
2023/09/15 12:28:39;;;;;;;1.90;1.80;;;27.20;99.90;;;;;;4999379;28;20232;-77
2023/09/15 12:31:05;;;;;;;1.80;1.70;;;27.00;99.90;;;;;;5001554;28;20700;-77
2023/09/15 12:33:33;;;;;;;2.00;1.77;;;26.80;99.90;;;;;;4999899;28;20219;-77
2023/09/15 12:36:05;;;;;;;1.60;1.50;;;26.80;99.90;;;;;;4998577;28;20270;-77
2023/09/15 12:38:32;;;;;;;2.00;1.90;;;26.80;99.90;;;;;;5002045;28;20269;-76
2023/09/15 12:41:01;;;;;;;1.73;1.63;;;26.70;99.90;;;;;;5000400;28;20200;-78
2023/09/15 12:43:28;;;;;;;2.00;1.88;;;26.60;99.90;;;;;;5006499;28;20773;-77
2023/09/15 12:45:54;;;;;;;1.80;1.70;;;26.50;99.90;;;;;;5005116;28;20200;-77
2023/09/15 12:48:21;;;;;;;1.80;1.70;;;26.50;99.90;;;;;;5002653;28;20231;-76
2023/09/15 12:50:49;;;;;;;2.70;2.03;;;26.50;99.90;;;;;;4992668;28;20726;-77
2023/09/15 12:53:16;;;;;;;1.80;1.70;;;26.60;99.90;;;;;;5000828;28;20216;-75